Time;durP1;ratioP1;P1;durP2;ratioP2;P2;SDS_P1;SDS_P2;PMS_P1;PMS_P2;Temp;Humidity;BMP_temperature;BMP_pressure;BME280_temperature;BME280_humidity;BME280_pressure;Samples;Min_cycle;Max_cycle;Signal;HPM_P1;HPM_P2
2022/01/08 00:01:35;;;;;;;7.13;3.17;;;4.20;85.30;;;;;;5005521;28;20049;-75
2022/01/08 00:04:09;;;;;;;6.50;2.47;;;4.20;85.40;;;;;;5008391;28;20417;-73
2022/01/08 00:06:49;;;;;;;4.06;2.07;;;4.20;85.50;;;;;;4784553;28;10001104;-74
2022/01/08 00:09:19;;;;;;;4.78;1.85;;;4.20;85.50;;;;;;691523;28;10001954;-74
2022/01/08 00:11:51;;;;;;;2.55;1.35;;;4.20;85.50;;;;;;5026976;28;20301;-75
2022/01/08 00:14:24;;;;;;;2.40;1.55;;;4.20;85.60;;;;;;5028492;28;20049;-75
2022/01/08 00:16:51;;;;;;;2.78;1.40;;;4.20;85.60;;;;;;5029281;28;20050;-74
2022/01/08 00:19:25;;;;;;;2.50;1.30;;;4.20;85.60;;;;;;5028059;28;20479;-74
2022/01/08 00:21:52;;;;;;;2.88;1.30;;;4.20;85.70;;;;;;5028075;28;20046;-75
2022/01/08 00:24:19;;;;;;;2.60;1.42;;;4.20;85.80;;;;;;5026234;28;20069;-74
2022/01/08 00:26:46;;;;;;;2.30;0.85;;;4.20;85.70;;;;;;5027196;28;20116;-73
2022/01/08 00:29:14;;;;;;;2.35;1.30;;;4.20;85.80;;;;;;5028690;28;20087;-75
2022/01/08 00:31:41;;;;;;;3.20;1.40;;;4.20;85.80;;;;;;5012310;28;20072;-74
2022/01/08 00:34:08;;;;;;;1.73;1.00;;;4.20;85.90;;;;;;5028025;28;20053;-75
2022/01/08 00:36:35;;;;;;;2.58;1.13;;;4.20;85.90;;;;;;5030717;28;20052;-76
2022/01/08 00:39:02;;;;;;;2.80;1.33;;;4.20;86.00;;;;;;5028109;28;20506;-74
2022/01/08 00:41:29;;;;;;;1.95;1.17;;;4.20;86.20;;;;;;5030252;28;20475;-72
2022/01/08 00:43:57;;;;;;;3.30;1.20;;;4.20;86.20;;;;;;5030682;28;20046;-74
2022/01/08 00:46:25;;;;;;;4.57;1.58;;;4.20;86.30;;;;;;5012165;28;20140;-74
2022/01/08 00:48:52;;;;;;;3.97;1.52;;;4.20;86.30;;;;;;5012266;28;20049;-73
2022/01/08 00:51:19;;;;;;;4.72;2.20;;;4.20;86.30;;;;;;5030198;28;20046;-76
2022/01/08 00:53:46;;;;;;;5.85;3.08;;;4.20;86.30;;;;;;5030579;28;20038;-75
2022/01/08 00:56:14;;;;;;;6.75;2.80;;;4.20;86.50;;;;;;5029632;28;20047;-74
2022/01/08 00:58:41;;;;;;;7.00;2.85;;;4.20;86.50;;;;;;5030892;28;20045;-74
2022/01/08 01:01:08;;;;;;;5.95;2.53;;;4.20;86.40;;;;;;5028359;28;20410;-73
2022/01/08 01:03:37;;;;;;;5.55;2.60;;;4.20;86.40;;;;;;5031490;28;20073;-75
2022/01/08 01:06:06;;;;;;;4.88;2.25;;;4.20;86.40;;;;;;5032057;28;20083;-74
2022/01/08 01:08:33;;;;;;;2.30;1.30;;;4.20;86.40;;;;;;5031247;28;20092;-73
2022/01/08 01:11:00;;;;;;;5.82;2.20;;;4.20;86.40;;;;;;5031700;28;20601;-75
2022/01/08 01:13:33;;;;;;;3.88;1.50;;;4.20;86.50;;;;;;5031853;28;20522;-74
2022/01/08 01:16:01;;;;;;;2.78;1.27;;;4.10;86.50;;;;;;5032024;28;20042;-73
2022/01/08 01:18:32;;;;;;;3.47;1.15;;;4.10;86.50;;;;;;5032003;28;20483;-74
2022/01/08 01:21:01;;;;;;;2.30;1.33;;;4.00;86.30;;;;;;5030850;28;20056;-74
2022/01/08 01:23:33;;;;;;;2.23;1.17;;;4.00;86.20;;;;;;5032364;28;20124;-73
2022/01/08 01:26:03;;;;;;;2.15;1.38;;;4.00;86.00;;;;;;5032522;28;20483;-72
2022/01/08 01:28:45;;;;;;;;;;;3.90;85.90;;;;;;5032260;28;20049;-72
2022/01/08 01:47:36;;;;;;;2.72;1.05;;;3.60;85.40;;;;;;5031595;28;20053;-72
2022/01/08 01:50:07;;;;;;;2.25;1.40;;;3.50;85.40;;;;;;5027900;28;20516;-73
2022/01/08 01:52:37;;;;;;;6.35;1.58;;;3.50;85.30;;;;;;5030919;28;20046;-71
2022/01/08 01:55:06;;;;;;;2.65;1.23;;;3.50;85.40;;;;;;5031014;28;20056;-73
2022/01/08 01:57:33;;;;;;;3.15;1.60;;;3.50;85.20;;;;;;5028591;28;20045;-71
2022/01/08 02:00:00;;;;;;;2.92;1.52;;;3.50;85.20;;;;;;5030813;28;20045;-72
2022/01/08 02:02:39;;;;;;;2.80;1.33;;;3.50;85.20;;;;;;5029122;28;20495;-70
2022/01/08 02:05:06;;;;;;;2.58;1.42;;;3.40;85.30;;;;;;5029755;28;20471;-71
2022/01/08 02:07:33;;;;;;;2.80;1.42;;;3.40;85.30;;;;;;5028024;28;20045;-72
2022/01/08 02:10:02;;;;;;;2.28;1.05;;;3.40;85.30;;;;;;5028653;28;20045;-71
2022/01/08 02:12:33;;;;;;;1.85;1.02;;;3.40;85.30;;;;;;5027685;28;20099;-74
2022/01/08 02:15:00;;;;;;;2.28;1.30;;;3.40;85.20;;;;;;5029536;28;20041;-72
2022/01/08 02:17:31;;;;;;;2.80;1.27;;;3.40;85.20;;;;;;5029035;28;20848;-72
2022/01/08 02:19:59;;;;;;;3.50;1.45;;;3.40;85.30;;;;;;5029029;28;20578;-71
2022/01/08 02:22:26;;;;;;;3.28;1.27;;;3.40;85.20;;;;;;5010183;28;20541;-70
2022/01/08 02:24:53;;;;;;;4.50;1.42;;;3.40;85.20;;;;;;5028889;28;20042;-71
2022/01/08 02:27:21;;;;;;;3.38;1.38;;;3.40;85.20;;;;;;5028359;28;20038;-72
2022/01/08 02:29:49;;;;;;;3.30;1.50;;;3.30;85.20;;;;;;5028678;28;20515;-71
2022/01/08 02:32:20;;;;;;;3.17;1.30;;;3.30;85.10;;;;;;5029017;28;20057;-72
2022/01/08 02:34:49;;;;;;;1.90;1.00;;;3.30;85.20;;;;;;5028612;28;20434;-72
2022/01/08 02:37:19;;;;;;;2.95;1.42;;;3.30;85.20;;;;;;5029163;28;20049;-71
2022/01/08 02:39:48;;;;;;;;;;;3.40;85.20;;;;;;5028856;28;20465;-72
2022/01/08 02:42:19;;;;;;;1.92;1.00;;;3.30;85.20;;;;;;5030123;28;19925;-72
2022/01/08 02:44:47;;;;;;;3.85;1.63;;;3.40;85.20;;;;;;5030490;28;20045;-71
2022/01/08 02:47:15;;;;;;;1.98;1.10;;;3.30;85.20;;;;;;5030393;28;20041;-72
2022/01/08 02:49:42;;;;;;;5.82;1.42;;;3.30;85.20;;;;;;5029712;28;20116;-72
2022/01/08 02:52:10;;;;;;;1.95;1.20;;;3.30;85.20;;;;;;5029534;28;20041;-71
2022/01/08 02:54:38;;;;;;;2.45;0.93;;;3.30;85.30;;;;;;5028916;28;20511;-72
2022/01/08 02:57:05;;;;;;;2.58;1.48;;;3.30;85.30;;;;;;5030719;28;20635;-70
2022/01/08 02:59:34;;;;;;;1.55;0.88;;;3.30;85.20;;;;;;5027614;28;20041;-71
2022/01/08 03:02:01;;;;;;;1.38;0.80;;;3.30;85.30;;;;;;5027867;28;20506;-70
2022/01/08 03:04:29;;;;;;;1.85;0.90;;;3.30;85.20;;;;;;5029576;28;20053;-71
2022/01/08 03:06:56;;;;;;;2.30;0.98;;;3.40;85.10;;;;;;5012127;28;20060;-71
2022/01/08 03:09:25;;;;;;;1.00;0.63;;;3.30;85.00;;;;;;5029627;28;20412;-71
2022/01/08 03:11:53;;;;;;;1.20;0.68;;;3.30;85.10;;;;;;5029762;28;20419;-70
2022/01/08 03:14:20;;;;;;;2.33;1.05;;;3.30;85.10;;;;;;5030252;28;20518;-72
2022/01/08 03:16:47;;;;;;;1.65;0.90;;;3.40;85.00;;;;;;5029083;28;20048;-72
2022/01/08 03:19:15;;;;;;;1.70;1.00;;;3.40;84.80;;;;;;5028596;28;20149;-71
2022/01/08 03:21:45;;;;;;;1.50;0.90;;;3.40;84.70;;;;;;5029136;28;20096;-71
2022/01/08 03:24:16;;;;;;;0.70;0.60;;;3.30;84.90;;;;;;5029785;28;20037;-73
2022/01/08 03:26:43;;;;;;;1.55;0.70;;;3.40;84.90;;;;;;5030162;28;20056;-72
2022/01/08 03:29:12;;;;;;;1.25;0.70;;;3.30;84.90;;;;;;5023618;28;20037;-70
2022/01/08 03:31:39;;;;;;;0.60;0.40;;;3.30;85.00;;;;;;5028416;28;20052;-72
2022/01/08 03:34:06;;;;;;;1.80;0.73;;;3.30;85.00;;;;;;5027157;28;20403;-72
2022/01/08 03:36:33;;;;;;;1.70;0.85;;;3.30;85.10;;;;;;5028347;28;20053;-71
2022/01/08 03:39:01;;;;;;;0.93;0.50;;;3.30;85.10;;;;;;5029590;28;20049;-71
2022/01/08 03:41:30;;;;;;;1.63;0.80;;;3.30;85.20;;;;;;5026917;28;20520;-71
2022/01/08 03:43:58;;;;;;;1.40;0.63;;;3.20;85.30;;;;;;5027610;28;20048;-71
2022/01/08 03:46:30;;;;;;;0.80;0.50;;;3.20;85.40;;;;;;5025513;28;20258;-72
2022/01/08 03:49:22;;;;;;;1.48;0.50;;;3.20;85.50;;;;;;5026496;28;20057;-71
2022/01/08 03:51:49;;;;;;;0.52;0.30;;;3.20;85.50;;;;;;5027498;28;20065;-71
2022/01/08 03:54:16;;;;;;;0.77;0.52;;;3.20;85.50;;;;;;5026787;28;20045;-71
2022/01/08 03:56:43;;;;;;;1.10;0.40;;;3.10;85.60;;;;;;5027729;28;20566;-71
2022/01/08 03:59:10;;;;;;;2.17;0.80;;;3.20;85.60;;;;;;5026919;28;20129;-72
2022/01/08 04:01:38;;;;;;;0.98;0.40;;;3.20;85.70;;;;;;5023772;28;20049;-71
2022/01/08 04:04:05;;;;;;;0.45;0.40;;;3.20;85.70;;;;;;5026033;28;20033;-72
2022/01/08 04:06:32;;;;;;;0.98;0.50;;;3.20;85.70;;;;;;5027780;28;20045;-72
2022/01/08 04:08:59;;;;;;;1.55;0.60;;;3.20;85.70;;;;;;5027254;28;20037;-72
2022/01/08 04:11:27;;;;;;;1.05;0.60;;;3.20;85.70;;;;;;5026919;28;20049;-73
2022/01/08 04:13:54;;;;;;;1.23;0.45;;;3.20;85.70;;;;;;5027420;28;20056;-73
2022/01/08 04:16:27;;;;;;;0.47;0.35;;;3.10;85.70;;;;;;5027387;28;20073;-73
2022/01/08 04:18:55;;;;;;;0.75;0.40;;;3.10;85.70;;;;;;5026860;28;20451;-72
2022/01/08 04:24:12;;;;;;;1.05;0.47;;;3.10;85.90;;;;;;5002854;28;20069;-73
2022/01/08 04:26:39;;;;;;;0.88;0.40;;;3.10;85.90;;;;;;5029153;28;20042;-73
2022/01/08 04:29:07;;;;;;;0.82;0.50;;;3.10;85.90;;;;;;5028627;28;20549;-73
2022/01/08 04:31:34;;;;;;;0.65;0.35;;;3.10;85.90;;;;;;5028946;28;20049;-74
2022/01/08 04:34:03;;;;;;;0.63;0.35;;;3.10;85.90;;;;;;5027956;28;20033;-76
2022/01/08 04:36:30;;;;;;;1.25;0.52;;;3.10;86.00;;;;;;5028540;28;20045;-76
2022/01/08 04:38:57;;;;;;;0.57;0.28;;;3.10;86.00;;;;;;5028925;28;20048;-73
2022/01/08 04:41:24;;;;;;;1.23;0.40;;;3.10;85.90;;;;;;5028211;28;20055;-73
2022/01/08 04:43:50;;;;;;;0.63;0.38;;;3.10;86.00;;;;;;5010690;28;20153;-73
2022/01/08 04:46:17;;;;;;;0.95;0.30;;;3.10;85.90;;;;;;5028117;28;20045;-73
2022/01/08 04:48:44;;;;;;;0.75;0.20;;;3.10;85.90;;;;;;5028492;28;20517;-74
2022/01/08 04:51:13;;;;;;;0.88;0.30;;;3.10;86.00;;;;;;5027035;28;20120;-76
2022/01/08 04:53:40;;;;;;;0.10;0.10;;;3.10;86.00;;;;;;5028738;28;20135;-73
2022/01/08 04:56:07;;;;;;;0.82;0.30;;;3.10;86.10;;;;;;5028859;28;20038;-74
2022/01/08 04:58:34;;;;;;;0.35;0.22;;;3.10;86.10;;;;;;5028114;28;20121;-74
2022/01/08 05:01:01;;;;;;;0.75;0.35;;;3.10;85.90;;;;;;5026610;28;20056;-74
2022/01/08 05:03:28;;;;;;;0.32;0.30;;;3.10;86.00;;;;;;5029289;28;20095;-74
2022/01/08 05:05:55;;;;;;;0.50;0.30;;;3.10;86.00;;;;;;5027347;28;20041;-74
2022/01/08 05:08:23;;;;;;;1.23;0.30;;;3.10;85.90;;;;;;5028407;28;20124;-73
2022/01/08 05:10:50;;;;;;;0.47;0.30;;;3.10;85.90;;;;;;5028624;28;20403;-73
2022/01/08 05:13:17;;;;;;;0.73;0.35;;;3.20;85.90;;;;;;5028722;28;20085;-73
